createdAt,value
2022-08-17T00:00:43.077Z,12.57
2022-08-17T00:03:54.788Z,11.93
2022-08-17T00:07:05.078Z,12.02
2022-08-17T00:10:16.452Z,11.27
2022-08-17T00:13:30.491Z,11.27
2022-08-17T00:16:55.453Z,12.00
2022-08-17T00:20:09.011Z,12.57
2022-08-17T03:29:07.781Z,19.02
2022-08-17T03:32:20.554Z,19.00
2022-08-17T03:35:33.061Z,20.33
2022-08-17T03:38:43.155Z,18.23
2022-08-17T03:41:56.576Z,19.60
2022-08-17T03:45:15.418Z,19.23
2022-08-17T03:48:43.040Z,18.75
2022-08-17T03:52:11.445Z,19.15
2022-08-17T03:58:50.512Z,20.15
2022-08-17T04:02:09.066Z,19.88
2022-08-17T04:05:19.454Z,20.45
2022-08-17T04:08:30.138Z,20.83
2022-08-17T04:11:40.794Z,21.35
2022-08-17T04:14:53.521Z,19.98
2022-08-17T04:18:07.670Z,20.30
2022-08-17T04:21:22.193Z,18.45
2022-08-17T04:24:33.072Z,20.05
2022-08-17T04:27:43.639Z,21.75
2022-08-17T04:30:54.123Z,19.50
2022-08-17T04:34:05.910Z,20.80
2022-08-17T04:37:15.949Z,20.33
2022-08-17T04:40:46.845Z,19.23
2022-08-17T04:43:58.575Z,20.23
2022-08-17T04:47:10.565Z,21.63
2022-08-17T04:50:24.707Z,21.80
2022-08-17T04:53:34.785Z,21.77
2022-08-17T04:56:45.317Z,20.10
2022-08-17T04:59:55.572Z,20.75
2022-08-17T05:03:06.805Z,21.35
2022-08-17T05:06:18.449Z,20.02
2022-08-17T05:09:29.168Z,21.05
2022-08-17T05:12:39.332Z,21.45
2022-08-17T05:15:51.347Z,22.08
2022-08-17T05:19:02.597Z,23.30
2022-08-17T05:22:15.402Z,21.83
2022-08-17T05:25:28.532Z,20.58
2022-08-17T05:28:42.457Z,20.80
2022-08-17T05:31:57.056Z,20.10
2022-08-17T05:35:08.485Z,20.70
2022-08-17T05:38:22.533Z,20.77
2022-08-17T05:41:32.837Z,20.42
2022-08-17T05:44:43.112Z,20.08
2022-08-17T05:47:53.410Z,21.35
2022-08-17T05:51:21.836Z,23.42
2022-08-17T05:58:01.016Z,23.23
2022-08-17T06:01:23.381Z,22.58
2022-08-17T06:04:47.021Z,20.65
2022-08-17T06:08:04.888Z,20.73
2022-08-17T06:11:26.648Z,19.65
2022-08-17T06:14:51.879Z,19.92
2022-08-17T06:18:06.714Z,20.20
2022-08-17T06:21:20.968Z,20.42
2022-08-17T06:24:40.345Z,20.27
2022-08-17T06:27:57.744Z,19.95
2022-08-17T06:31:16.590Z,19.55
2022-08-17T06:34:26.958Z,19.13
2022-08-17T06:38:02.253Z,18.67
2022-08-17T06:41:19.492Z,18.83
2022-08-17T06:44:47.598Z,19.02
2022-08-17T06:48:09.007Z,17.27
2022-08-17T06:51:26.053Z,17.53
2022-08-17T06:54:45.778Z,16.17
2022-08-17T06:58:05.747Z,15.93
2022-08-17T07:01:33.676Z,15.57
2022-08-17T07:04:44.451Z,14.38
2022-08-17T07:08:04.642Z,14.52
2022-08-17T07:11:19.418Z,14.77
2022-08-17T07:14:37.604Z,14.57
2022-08-17T07:17:49.914Z,13.95
2022-08-17T07:21:17.481Z,13.45
2022-08-17T07:24:37.239Z,12.82
2022-08-17T07:27:51.348Z,13.38
2022-08-17T07:31:02.100Z,13.02
2022-08-17T07:34:14.657Z,13.18
2022-08-17T07:37:24.568Z,11.38
2022-08-17T07:40:37.659Z,9.50
2022-08-17T07:43:52.422Z,10.07
2022-08-17T07:47:20.463Z,9.13
2022-08-17T07:50:32.382Z,8.38
2022-08-17T07:53:42.605Z,8.35
2022-08-17T07:56:55.142Z,7.60
2022-08-17T08:00:16.789Z,8.18
2022-08-17T08:03:28.434Z,8.65
2022-08-17T08:06:52.734Z,7.75
2022-08-17T08:10:10.563Z,8.15
2022-08-17T08:13:25.057Z,7.50
2022-08-17T08:16:36.710Z,7.53
2022-08-17T08:19:46.972Z,7.40
2022-08-17T08:23:07.163Z,7.05
2022-08-17T08:26:29.401Z,6.82
2022-08-17T08:29:47.939Z,7.18
2022-08-17T08:33:10.826Z,7.20
2022-08-17T08:37:15.991Z,5.10
2022-08-17T08:40:21.538Z,4.78
2022-08-17T08:43:43.423Z,5.80
2022-08-17T08:47:02.367Z,6.57
2022-08-17T08:50:37.154Z,4.47
2022-08-17T08:53:59.724Z,4.10
2022-08-17T08:57:33.380Z,4.40
2022-08-17T09:00:48.138Z,5.20
2022-08-17T09:04:23.722Z,4.68
2022-08-17T09:07:42.900Z,4.72
2022-08-17T09:11:00.434Z,4.55
2022-08-17T09:14:21.760Z,4.35
2022-08-17T09:17:39.889Z,5.03
2022-08-17T09:20:55.173Z,5.00
2022-08-17T09:24:12.658Z,4.32
2022-08-17T09:27:28.110Z,4.93
2022-08-17T09:30:45.463Z,5.07
2022-08-17T09:33:58.638Z,5.03
2022-08-17T09:37:19.795Z,5.57
2022-08-17T09:40:34.904Z,5.35
2022-08-17T09:43:55.399Z,5.50
2022-08-17T09:47:13.656Z,7.70
2022-08-17T09:51:03.914Z,6.50
2022-08-17T09:54:20.945Z,7.63
2022-08-17T09:57:46.907Z,5.72
2022-08-17T10:01:03.982Z,5.22
2022-08-17T10:04:41.915Z,6.70
2022-08-17T10:07:57.404Z,4.97
2022-08-17T10:11:33.507Z,5.07
2022-08-17T10:14:55.117Z,4.78
2022-08-17T10:18:31.867Z,4.45
2022-08-17T10:22:14.903Z,4.60
2022-08-17T10:26:08.428Z,4.60
2022-08-17T10:29:26.475Z,4.63
2022-08-17T10:32:44.779Z,5.50
2022-08-17T10:36:07.507Z,4.88
2022-08-17T10:39:31.793Z,4.18
2022-08-17T10:42:50.134Z,4.28
2022-08-17T10:46:10.616Z,4.28
2022-08-17T10:49:47.366Z,4.68
2022-08-17T10:52:57.646Z,4.88
2022-08-17T10:56:40.504Z,4.60
2022-08-17T10:59:55.160Z,4.05
2022-08-17T11:03:19.648Z,4.43
2022-08-17T11:06:41.955Z,3.78
2022-08-17T11:10:13.641Z,4.25
2022-08-17T11:13:40.009Z,4.22
2022-08-17T11:17:04.982Z,4.30
2022-08-17T11:20:29.901Z,4.68
2022-08-17T11:24:08.388Z,4.22
2022-08-17T11:27:26.370Z,5.20
2022-08-17T11:30:50.233Z,4.03
2022-08-17T11:34:06.067Z,5.18
2022-08-17T11:37:37.368Z,4.63
2022-08-17T11:41:14.325Z,5.45
2022-08-17T11:44:39.154Z,4.60
2022-08-17T11:48:29.226Z,5.03
2022-08-17T11:52:11.869Z,4.60
2022-08-17T11:56:04.350Z,4.10
2022-08-17T11:59:51.757Z,4.78
2022-08-17T12:03:42.448Z,10.47
2022-08-17T12:07:11.236Z,5.32
2022-08-17T12:10:31.952Z,4.50
2022-08-17T12:13:47.578Z,4.88
2022-08-17T12:17:03.954Z,5.10
2022-08-17T12:20:23.073Z,5.28
2022-08-17T12:23:44.131Z,4.75
2022-08-17T12:26:58.837Z,4.40
2022-08-17T12:30:13.318Z,4.45
2022-08-17T12:33:28.468Z,4.47
2022-08-17T12:36:41.438Z,4.22
2022-08-17T12:39:55.496Z,4.18
2022-08-17T12:43:09.092Z,3.80
2022-08-17T12:46:19.537Z,4.22
2022-08-17T12:49:35.423Z,4.20
2022-08-17T12:52:46.973Z,4.57
2022-08-17T12:55:58.629Z,4.30
2022-08-17T12:59:12.086Z,4.20
2022-08-17T13:02:30.035Z,4.35
2022-08-17T13:05:44.011Z,4.50
2022-08-17T13:08:55.791Z,4.25
2022-08-17T13:12:07.496Z,4.40
2022-08-17T13:15:24.399Z,4.28
2022-08-17T13:18:42.241Z,4.60
2022-08-17T13:21:54.989Z,4.10
2022-08-17T13:25:09.221Z,4.05
2022-08-17T13:28:30.723Z,4.70
2022-08-17T13:31:52.623Z,4.50
2022-08-17T13:35:33.006Z,4.10
2022-08-17T13:38:51.165Z,4.22
2022-08-17T13:42:02.871Z,4.10
2022-08-17T13:45:50.898Z,4.28
2022-08-17T13:49:04.269Z,3.97
2022-08-17T13:52:35.318Z,4.35
2022-08-17T13:55:51.359Z,4.07
2022-08-17T13:59:07.908Z,3.92
2022-08-17T14:02:21.264Z,4.30
2022-08-17T14:05:33.725Z,4.68
2022-08-17T14:08:47.787Z,4.15
2022-08-17T14:11:58.745Z,3.80
2022-08-17T14:15:12.688Z,4.35
2022-08-17T14:18:49.858Z,4.03
2022-08-17T14:21:58.976Z,4.38
2022-08-17T14:25:12.078Z,4.47
2022-08-17T14:28:23.083Z,4.55
2022-08-17T14:31:39.034Z,4.90
2022-08-17T14:34:50.026Z,4.93
2022-08-17T14:38:00.126Z,4.38
2022-08-17T14:41:10.193Z,4.40
2022-08-17T14:44:20.517Z,4.93
2022-08-17T14:47:31.841Z,4.38
2022-08-17T14:50:46.112Z,4.10
2022-08-17T14:53:57.114Z,4.30
2022-08-17T14:57:33.475Z,4.50
2022-08-17T15:00:39.455Z,4.45
2022-08-17T15:03:53.897Z,4.80
2022-08-17T15:07:04.011Z,4.82
2022-08-17T15:10:15.669Z,4.85
2022-08-17T15:13:27.725Z,5.43
2022-08-17T15:16:38.521Z,4.80
2022-08-17T15:19:50.278Z,5.35
2022-08-17T15:23:00.366Z,5.60
2022-08-17T15:26:12.009Z,5.65
2022-08-17T15:29:22.601Z,5.95
2022-08-17T15:32:35.384Z,6.43
2022-08-17T15:35:50.686Z,6.90
2022-08-17T15:39:01.655Z,6.22
2022-08-17T15:42:12.331Z,6.80
2022-08-17T15:45:26.582Z,6.55
2022-08-17T15:48:43.409Z,6.90
2022-08-17T15:51:54.810Z,6.72
2022-08-17T15:55:07.240Z,6.38
2022-08-17T15:58:19.346Z,7.30
2022-08-17T16:02:21.598Z,7.00
2022-08-17T16:05:05.797Z,6.60
2022-08-17T16:08:21.671Z,6.40
2022-08-17T16:11:31.766Z,6.00
2022-08-17T16:14:42.163Z,6.07
2022-08-17T16:17:52.978Z,6.18
2022-08-17T16:21:22.208Z,5.35
2022-08-17T16:24:33.913Z,6.20
2022-08-17T16:27:44.771Z,5.75
2022-08-17T16:30:55.305Z,6.55
2022-08-17T16:34:17.799Z,5.57
2022-08-17T16:37:29.397Z,5.68
2022-08-17T16:40:42.335Z,6.00
2022-08-17T16:43:52.769Z,5.68
2022-08-17T16:47:02.868Z,5.72
2022-08-17T16:50:15.507Z,5.40
2022-08-17T16:53:26.707Z,5.72
2022-08-17T16:56:38.617Z,5.15
2022-08-17T16:59:50.233Z,5.55
2022-08-17T17:03:19.090Z,5.32
2022-08-17T17:06:45.027Z,5.45
2022-08-17T17:09:56.778Z,5.82
2022-08-17T17:13:14.032Z,5.20
2022-08-17T17:16:35.902Z,5.67
2022-08-17T17:19:50.762Z,5.35
2022-08-17T17:23:06.946Z,5.18
2022-08-17T17:26:38.927Z,5.63
2022-08-17T17:30:00.749Z,5.00
2022-08-17T17:33:14.472Z,5.03
2022-08-17T17:36:30.670Z,5.15
2022-08-17T17:39:46.872Z,5.30
2022-08-17T17:43:20.528Z,4.95
2022-08-17T17:46:37.879Z,5.65
2022-08-17T17:49:49.536Z,5.22
2022-08-17T17:53:05.119Z,5.40
2022-08-17T17:56:44.240Z,5.00
2022-08-17T18:00:04.654Z,5.20
2022-08-17T18:03:30.911Z,5.40
2022-08-17T18:06:54.915Z,5.28
2022-08-17T18:10:19.539Z,5.65
2022-08-17T18:13:56.898Z,5.93
2022-08-17T18:17:09.105Z,5.60
2022-08-17T18:20:43.250Z,5.95
2022-08-17T18:23:57.964Z,5.97
2022-08-17T18:27:24.003Z,5.75
2022-08-17T18:30:33.963Z,5.85
2022-08-17T18:33:46.425Z,5.65
2022-08-17T18:36:58.501Z,4.90
2022-08-17T18:40:33.650Z,4.80
2022-08-17T18:43:53.695Z,4.93
2022-08-17T18:47:14.967Z,4.40
2022-08-17T18:50:28.124Z,5.95
2022-08-17T18:53:41.723Z,7.75
2022-08-17T18:56:54.698Z,7.15
2022-08-17T19:00:13.411Z,6.95
2022-08-17T19:03:26.581Z,6.53
2022-08-17T19:06:37.709Z,7.68
2022-08-17T19:09:53.598Z,7.53
2022-08-17T19:13:12.333Z,8.20
2022-08-17T19:16:30.678Z,7.35
2022-08-17T19:19:50.299Z,8.13
2022-08-17T19:23:12.198Z,8.52
2022-08-17T19:26:51.100Z,7.22
2022-08-17T19:30:07.555Z,7.25
2022-08-17T19:33:19.365Z,7.10
2022-08-17T19:36:38.924Z,5.82
2022-08-17T19:40:00.207Z,5.80
2022-08-17T19:43:23.368Z,5.63
2022-08-17T19:46:43.047Z,6.88
2022-08-17T19:50:04.632Z,6.55
2022-08-17T19:53:41.782Z,7.82
2022-08-17T19:57:03.207Z,7.93
2022-08-17T20:00:16.810Z,7.68
2022-08-17T20:03:31.621Z,7.28
2022-08-17T20:06:49.180Z,7.97
2022-08-17T20:10:05.643Z,7.80
2022-08-17T20:13:33.497Z,8.80
2022-08-17T20:16:45.848Z,8.93
2022-08-17T20:20:03.739Z,8.82
2022-08-17T20:23:24.780Z,8.75
2022-08-17T20:26:47.882Z,8.15
2022-08-17T20:30:11.843Z,8.10
2022-08-17T20:33:29.795Z,9.57
2022-08-17T20:36:58.941Z,8.70
2022-08-17T20:40:20.478Z,7.55
2022-08-17T20:43:48.916Z,7.22
2022-08-17T20:47:06.180Z,7.10
2022-08-17T20:50:30.738Z,7.15
2022-08-17T20:54:35.565Z,6.30
2022-08-17T20:57:49.236Z,6.95
2022-08-17T21:01:13.131Z,6.57
2022-08-17T21:04:47.332Z,7.28
2022-08-17T21:08:02.503Z,7.00
2022-08-17T21:12:04.343Z,7.00
2022-08-17T21:15:29.465Z,7.10
2022-08-17T21:18:51.422Z,6.07
2022-08-17T21:22:15.066Z,5.85
2022-08-17T21:25:44.878Z,5.30
2022-08-17T21:29:29.682Z,5.13
2022-08-17T21:32:42.085Z,5.20
2022-08-17T21:35:58.575Z,4.10
2022-08-17T21:39:12.478Z,5.28
2022-08-17T21:42:29.067Z,4.78
2022-08-17T21:45:42.949Z,4.68
2022-08-17T21:48:58.315Z,4.88
2022-08-17T21:52:08.954Z,5.10
2022-08-17T21:55:23.151Z,4.63
2022-08-17T21:58:40.370Z,4.47
2022-08-17T22:01:53.919Z,4.90
2022-08-17T22:05:08.387Z,4.75
2022-08-17T22:08:21.793Z,4.55
2022-08-17T22:11:32.237Z,4.50
2022-08-17T22:14:52.374Z,4.38
2022-08-17T22:18:05.198Z,4.63
2022-08-17T22:21:18.480Z,5.10
2022-08-17T22:24:33.524Z,4.70
2022-08-17T22:27:54.512Z,5.15
2022-08-17T22:31:09.108Z,4.82
2022-08-17T22:34:20.507Z,4.45
2022-08-17T22:37:31.547Z,4.50
2022-08-17T22:40:49.036Z,4.40
2022-08-17T22:44:02.406Z,4.37
2022-08-17T22:47:29.483Z,3.95
2022-08-17T22:50:39.474Z,4.03
2022-08-17T22:54:09.826Z,4.43
2022-08-17T22:57:52.188Z,4.63
2022-08-17T23:01:24.204Z,4.30
2022-08-17T23:04:40.290Z,3.60
2022-08-17T23:07:54.002Z,3.50
2022-08-17T23:11:06.721Z,3.80
2022-08-17T23:14:18.450Z,3.38
2022-08-17T23:17:33.895Z,3.80
2022-08-17T23:20:48.286Z,3.25
2022-08-17T23:23:59.083Z,4.15
2022-08-17T23:27:09.490Z,3.00
2022-08-17T23:30:20.262Z,3.88
2022-08-17T23:33:34.323Z,3.42
2022-08-17T23:36:52.561Z,3.15
2022-08-17T23:40:03.436Z,2.83
2022-08-17T23:43:24.353Z,2.78
2022-08-17T23:46:35.843Z,2.53
2022-08-17T23:49:46.110Z,3.30
2022-08-17T23:52:58.154Z,2.60
2022-08-17T23:56:11.106Z,2.70
2022-08-17T23:59:23.877Z,2.63
